Latest Weather Observations for Merimbula

IDN60801

Issued at 7:53 am EDT Tuesday 27 October 2020 (issued every 10 minutes, with the page automatically refreshed every 10 minutes)

About weather observations | Map of weather stations | Latest weather observations for NSW | Other Formats
Station Details ID: 069147 Name: MERIMBULA AIRPORT AWS Lat: -36.91 Lon: 149.90 Height: 1.5 m
Data from the previous 72 hours. | See also: Recent months at Merimbula
Date/Time
EDT
Temp
°C
App
Temp
°C
Dew
Point
°C
Rel
Hum
%
Delta-T
°C
Wind Press
QNH
hPa
Press
MSL
hPa
Rain since
9am
mm
Dir  Spd
km/h
Gust
km/h
Spd
kts
Gust
kts
27/07:45am 11.4 10.6 11.2 99 0.1 W 6 7 3 4 1024.1 1024.1 16.0
27/07:37am 11.3 10.3 11.1 99 0.1 W 7 9 4 5 1024.1 1024.1 15.6
27/07:33am 11.3 10.3 11.1 99 0.1 WNW 7 9 4 5 1024.0 1024.0 15.0
27/07:30am 11.4 10.6 11.2 99 0.1 WNW 6 9 3 5 1023.9 1023.9 14.8
27/07:11am 11.2 9.8 11.0 99 0.1 WSW 9 13 5 7 1023.8 1023.8 14.4
27/07:00am 11.2 9.8 11.0 99 0.1 SW 9 13 5 7 1023.7 1023.7 14.4
27/06:30am 11.0 9.6 10.8 99 0.1 WSW 9 15 5 8 1023.5 1023.5 14.4
27/06:20am 10.9 9.4 10.7 99 0.1 WSW 9 15 5 8 1023.5 1023.5 14.4
27/06:00am 10.9 8.7 10.7 99 0.1 SW 13 20 7 11 1023.6 1023.6 14.0
27/05:58am 10.8 8.5 10.6 99 0.1 SW 13 17 7 9 1023.6 1023.6 13.8
27/05:30am 10.7 8.8 10.5 99 0.1 SSW 11 15 6 8 1023.4 1023.4 13.0
27/05:22am 10.7 8.4 10.5 99 0.1 SSW 13 17 7 9 1023.4 1023.4 12.8
27/05:00am 10.7 9.6 10.5 99 0.1 SW 7 17 4 9 1023.3 1023.3 12.0
27/04:53am 10.7 9.6 10.5 99 0.1 SW 7 11 4 6 1023.2 1023.2 12.0
27/04:44am 10.7 9.2 10.5 99 0.1 SW 9 13 5 7 1023.1 1023.1 11.8
27/04:30am 10.8 9.3 10.6 99 0.1 SW 9 15 5 8 1023.0 1023.0 11.0
27/04:00am 10.7 8.8 10.5 99 0.1 SW 11 17 6 9 1023.0 1023.0 10.6
27/03:33am 10.9 9.1 10.7 99 0.1 S 11 17 6 9 1023.3 1023.3 10.6
27/03:30am 10.9 9.1 10.7 99 0.1 S 11 17 6 9 1023.2 1023.2 10.6
27/03:22am 10.6 9.1 10.4 99 0.1 S 9 13 5 7 1023.4 1023.4 10.4
27/03:00am 10.4 8.8 10.2 99 0.1 SW 9 13 5 7 1023.2 1023.2 9.8
27/02:30am 10.6 8.7 10.4 99 0.1 SSW 11 15 6 8 1023.5 1023.5 9.6
27/02:00am 10.7 9.2 10.5 99 0.1 WSW 9 13 5 7 1023.5 1023.5 9.6
27/01:30am 10.8 9.3 10.6 99 0.1 WSW 9 13 5 7 1023.7 1023.7 9.6
27/01:00am 10.8 8.5 10.6 99 0.1 SW 13 17 7 9 1024.1 1024.1 9.2
27/12:30am 10.7 9.2 10.5 99 0.1 SW 9 19 5 10 1024.4 1024.4 9.0
27/12:01am 10.7 8.8 10.5 99 0.1 SSW 11 20 6 11 1024.7 1024.7 8.8
27/12:00am 10.7 8.8 10.5 99 0.1 SSW 11 20 6 11 1024.7 1024.7 8.8
 
Date/Time
EDT
Temp
°C
App
Temp
°C
Dew
Point
°C
Rel
Hum
%
Delta-T
°C
Wind Press
QNH
hPa
Press
MSL
hPa
Rain since
9am
mm
Dir  Spd
km/h
Gust
km/h
Spd
kts
Gust
kts
26/11:45pm 10.8 8.5 10.6 99 0.1 SW 13 20 7 11 1024.7 1024.7 8.8
26/11:30pm 10.7 8.4 10.5 99 0.1 SW 13 20 7 11 1024.8 1024.8 7.8
26/11:00pm 10.8 8.9 10.6 99 0.1 SW 11 15 6 8 1025.2 1025.2 7.8
26/10:30pm 10.8 9.3 10.6 99 0.1 SSW 9 13 5 7 1025.3 1025.3 7.8
26/10:00pm 10.9 8.7 10.7 99 0.1 SSW 13 20 7 11 1025.3 1025.3 7.0
26/09:55pm 10.9 8.7 10.7 99 0.1 SW 13 20 7 11 1025.4 1025.4 7.0
26/09:31pm 11.1 11.0 10.9 99 0.1 S 2 9 1 5 1025.6 1025.6 5.6
26/09:30pm 11.1 11.0 10.9 99 0.1 S 2 9 1 5 1025.6 1025.6 5.6
26/09:00pm 11.1 9.3 10.9 99 0.1 SW 11 17 6 9 1025.2 1025.2 4.8
26/08:30pm 11.1 9.3 10.9 99 0.1 SSW 11 17 6 9 1025.0 1025.0 4.8
26/08:08pm 11.2 9.8 11.0 99 0.1 SSW 9 17 5 9 1024.8 1024.8 4.4
26/08:00pm 11.2 9.4 10.9 98 0.2 SSW 11 17 6 9 1024.8 1024.8 4.4
26/07:51pm 11.3 9.2 11.0 98 0.2 SSW 13 20 7 11 1024.9 1024.9 3.8
26/07:30pm 11.4 9.6 10.9 97 0.3 S 11 17 6 9 1024.8 1024.8 3.0
26/07:00pm 12.0 9.8 10.9 93 0.6 SSW 13 17 7 9 1024.4 1024.4 2.8
26/06:30pm 12.0 9.5 11.1 94 0.5 SSW 15 20 8 11 1024.1 1024.1 2.8
26/06:00pm 12.2 10.1 11.3 94 0.5 SSW 13 20 7 11 1024.2 1024.2 2.6
26/05:46pm 12.0 9.6 11.4 96 0.3 SSW 15 22 8 12 1024.0 1024.0 2.6
26/05:36pm 11.8 8.3 10.9 94 0.5 S 20 35 11 19 1023.9 1023.9 2.6
26/05:30pm 11.8 7.5 10.7 93 0.6 S 24 37 13 20 1024.0 1024.0 2.6
26/05:00pm 12.7 10.0 11.8 94 0.5 S 17 30 9 16 1023.7 1023.7 2.4
26/04:30pm 14.4 12.3 11.2 81 1.7 S 13 22 7 12 1023.5 1023.5 2.2
26/04:00pm 14.0 12.3 12.4 90 0.9 S 13 22 7 12 1023.6 1023.6 2.2
26/03:32pm 12.5 9.3 11.4 93 0.6 S 19 28 10 15 1023.8 1023.8 2.2
26/03:30pm 12.3 8.9 11.2 93 0.6 S 20 35 11 19 1023.8 1023.8 2.2
26/03:21pm 12.4 8.9 10.8 90 0.8 SSE 20 32 11 17 1023.9 1023.9 2.2
26/03:00pm 14.1 10.8 10.9 81 1.7 S 19 30 10 16 1023.7 1023.7 1.6
26/02:30pm 13.6 11.3 11.7 88 1.0 S 15 22 8 12 1024.2 1024.2 1.6
26/02:00pm 13.8 10.6 11.3 85 1.3 SSE 19 26 10 14 1024.3 1024.3 1.2
26/01:30pm 13.1 9.7 10.6 85 1.3 SSE 19 33 10 18 1024.4 1024.4 1.2
26/01:00pm 13.7 9.5 11.2 85 1.3 SSE 24 43 13 23 1024.5 1024.5 1.2
26/12:30pm 14.6 11.8 11.4 81 1.7 S 17 26 9 14 1024.3 1024.3 1.2
26/12:00pm 12.2 8.8 11.1 93 0.6 SSE 20 32 11 17 1025.1 1025.1 1.0
26/11:30am 13.6 10.2 11.3 86 1.2 SSE 20 35 11 19 1025.1 1025.1 0.6
26/11:00am 14.6 11.0 10.0 74 2.4 SSE 19 35 10 19 1025.1 1025.1 0.2
26/10:30am 13.3 11.0 10.3 82 1.6 SSW 13 20 7 11 1025.1 1025.1 0.2
26/10:00am 12.3 9.2 10.4 88 1.0 S 17 28 9 15 1025.2 1025.2 0.2
26/09:30am 12.8 9.1 8.1 73 2.3 SSW 17 28 9 15 1024.9 1024.9 0.0
26/09:00am 13.0 10.2 8.5 74 2.2 SSW 13 20 7 11 1025.0 1025.0 20.0
26/08:30am 12.8 9.5 7.9 72 2.4 SSW 15 26 8 14 1024.7 1024.7 20.0
26/08:00am 11.6 8.2 7.7 77 1.9 SSW 15 22 8 12 1024.7 1024.7 20.0
26/07:30am 11.6 7.3 7.1 74 2.2 SSW 19 28 10 15 1024.6 1024.6 20.0
26/07:00am 11.5 8.7 7.0 74 2.1 SSW 11 17 6 9 1024.5 1024.5 20.0
26/06:30am 11.0 8.7 7.5 79 1.7 SSW 9 19 5 10 1024.2 1024.2 20.0
26/06:00am 11.1 8.0 7.4 78 1.8 SSW 13 20 7 11 1023.7 1023.7 20.0
26/05:30am 11.0 8.0 7.9 81 1.5 SSW 13 22 7 12 1023.3 1023.3 20.0
26/05:00am 11.1 8.2 8.1 82 1.5 SSW 13 20 7 11 1023.1 1023.1 20.0
26/04:30am 11.1 8.2 8.1 82 1.5 SSW 13 19 7 10 1023.1 1023.1 20.0
26/04:00am 11.0 8.6 8.6 85 1.2 SSW 11 19 6 10 1023.0 1023.0 20.0
26/03:30am 11.0 7.8 8.4 84 1.3 SSW 15 22 8 12 1022.9 1022.9 20.0
26/03:00am 11.1 8.0 8.7 85 1.2 SSW 15 20 8 11 1023.0 1023.0 20.0
26/02:30am 11.0 8.3 9.1 88 0.9 SW 13 22 7 12 1023.0 1023.0 20.0
26/02:00am 10.8 8.7 9.6 92 0.6 SSW 11 19 6 10 1023.5 1023.5 20.0
26/01:30am 10.9 8.8 9.7 92 0.6 SSW 11 17 6 9 1023.6 1023.6 20.0
26/01:00am 10.8 8.4 9.9 94 0.5 SSW 13 20 7 11 1023.8 1023.8 20.0
26/12:30am 10.8 8.0 10.0 95 0.4 SSW 15 20 8 11 1023.9 1023.9 20.0
26/12:00am 10.8 8.5 10.3 97 0.3 SSW 13 20 7 11 1023.8 1023.8 20.0
 
Date/Time
EDT
Temp
°C
App
Temp
°C
Dew
Point
°C
Rel
Hum
%
Delta-T
°C
Wind Press
QNH
hPa
Press
MSL
hPa
Rain since
9am
mm
Dir  Spd
km/h
Gust
km/h
Spd
kts
Gust
kts
25/11:30pm 10.9 8.6 10.6 98 0.2 SSW 13 19 7 10 1023.9 1023.9 19.8
25/11:00pm 10.9 9.1 10.7 99 0.1 SW 11 17 6 9 1023.9 1023.9 19.4
25/10:30pm 11.0 9.2 10.8 99 0.1 SSW 11 17 6 9 1023.9 1023.9 18.6
25/10:00pm 11.3 8.8 11.1 99 0.1 SSW 15 24 8 13 1023.9 1023.9 17.0
25/09:30pm 11.3 8.8 11.1 99 0.1 SSW 15 22 8 12 1023.6 1023.6 15.4
25/09:00pm 11.4 9.3 11.2 99 0.1 SSW 13 20 7 11 1022.8 1022.8 14.4
25/08:43pm 11.5 9.4 11.3 99 0.1 SSW 13 20 7 11 1022.7 1022.7 14.2
25/08:30pm 11.5 9.1 11.3 99 0.1 S 15 24 8 13 1022.6 1022.6 13.4
25/08:21pm 11.6 8.8 11.4 99 0.1 S 17 28 9 15 1022.4 1022.4 13.0
25/08:16pm 11.6 8.4 11.4 99 0.1 S 19 30 10 16 1022.3 1022.3 12.4
25/08:11pm 11.7 8.4 11.5 99 0.1 S 20 30 11 16 1022.2 1022.2 12.0
25/08:00pm 11.7 8.9 11.5 99 0.1 S 17 26 9 14 1022.0 1022.0 11.8
25/07:30pm 12.1 9.1 11.9 99 0.1 SSE 19 30 10 16 1021.4 1021.4 9.0
25/07:00pm 12.3 8.8 12.1 99 0.1 S 22 32 12 17 1020.7 1020.7 8.0
25/06:30pm 12.5 8.3 12.3 99 0.1 S 26 37 14 20 1020.2 1020.2 6.0
25/06:29pm 12.5 8.3 12.3 99 0.1 S 26 37 14 20 1020.1 1020.1 6.0
25/06:19pm 12.6 8.4 12.4 99 0.1 SSE 26 39 14 21 1020.0 1020.0 5.8
25/06:00pm 12.8 9.8 12.6 99 0.1 S 20 35 11 19 1019.6 1019.6 5.4
25/05:30pm 13.1 11.5 12.8 98 0.2 S 13 22 7 12 1019.2 1019.2 1.2
25/05:23pm 13.2 11.2 12.6 96 0.3 S 15 24 8 13 1019.1 1019.1 0.4
25/05:00pm 14.7 11.3 11.3 80 1.8 S 20 32 11 17 1018.6 1018.6 0.2
25/04:30pm 16.0 13.6 11.4 74 2.5 SSE 15 20 8 11 1018.0 1018.0 0.2
25/04:00pm 15.6 13.6 11.6 77 2.2 ESE 13 24 7 13 1017.8 1017.8 0.2
25/03:30pm 16.5 14.1 10.1 66 3.4 S 13 20 7 11 1017.5 1017.5 0.2
25/03:00pm 16.2 14.8 9.6 65 3.4 S 7 13 4 7 1017.6 1017.6 0.2
25/02:30pm 15.7 13.4 9.1 65 3.4 S 11 17 6 9 1017.6 1017.6 0.2
25/02:00pm 15.8 12.9 8.3 61 3.8 SSW 13 22 7 12 1017.6 1017.6 0.2
25/01:30pm 15.3 13.2 8.3 63 3.5 WSW 9 15 5 8 1017.5 1017.5 0.2
25/01:00pm 15.0 12.9 8.3 64 3.4 SW 9 11 5 6 1017.3 1017.3 0.2
25/12:30pm 15.2 11.4 7.5 60 3.8 SW 17 24 9 13 1017.1 1017.1 0.2
25/12:00pm 15.0 11.5 7.1 59 3.9 SW 15 24 8 13 1017.1 1017.1 0.2
25/11:30am 14.7 12.2 8.0 64 3.3 WSW 11 17 6 9 1017.1 1017.1 0.2
25/11:00am 14.0 10.5 7.3 64 3.3 WSW 15 24 8 13 1017.0 1017.0 0.2
25/10:30am 13.5 9.6 7.1 65 3.1 WSW 17 22 9 12 1016.7 1016.7 0.0
25/10:00am 13.7 9.7 6.6 62 3.4 WSW 17 28 9 15 1016.5 1016.5 0.0
25/09:30am 12.9 9.6 6.3 64 3.1 WSW 13 24 7 13 1016.4 1016.4 0.0
25/09:00am 12.6 8.9 6.2 65 3.0 SW 15 22 8 12 1016.2 1016.2 13.0
25/08:30am 12.4 8.6 6.0 65 3.0 WSW 15 26 8 14 1015.7 1015.7 13.0
25/08:00am 12.0 7.8 5.9 66 2.8 SW 17 30 9 16 1015.2 1015.2 13.0
25/07:30am 12.0 8.9 5.6 65 3.0 SW 11 20 6 11 1014.7 1014.7 13.0
25/07:00am 11.6 8.5 5.7 67 2.7 SW 11 20 6 11 1014.1 1014.1 13.0
25/06:30am 11.4 8.0 5.7 68 2.6 SW 13 28 7 15 1013.5 1013.5 13.0
25/06:00am 11.6 6.9 5.3 65 2.9 SW 19 33 10 18 1013.0 1013.0 13.0
25/05:30am 11.5 7.1 4.9 64 3.0 SW 17 32 9 17 1012.5 1012.5 13.0
25/05:00am 11.3 7.7 5.2 66 2.8 SW 13 24 7 13 1012.2 1012.2 13.0
25/04:30am 11.4 8.0 5.7 68 2.6 SW 13 19 7 10 1011.9 1011.9 13.0
25/04:00am 11.5 7.6 5.4 66 2.8 SW 15 22 8 12 1011.6 1011.6 13.0
25/03:30am 11.5 8.0 5.4 66 2.8 SW 13 24 7 13 1011.3 1011.3 13.0
25/03:00am 11.5 8.2 6.2 70 2.5 SW 13 24 7 13 1010.9 1010.9 13.0
25/02:30am 11.6 9.2 7.1 74 2.2 SSW 9 15 5 8 1010.6 1010.6 13.0
25/02:00am 11.7 9.1 7.6 76 2.0 SSW 11 17 6 9 1010.2 1010.2 13.0
25/01:30am 11.8 8.9 8.1 78 1.8 SSW 13 19 7 10 1010.0 1010.0 13.0
25/01:00am 11.7 8.5 8.6 81 1.5 SSW 15 20 8 11 1009.8 1009.8 13.0
25/12:30am 11.8 7.7 8.5 80 1.6 SSW 20 30 11 16 1009.6 1009.6 13.0
25/12:00am 11.8 8.8 9.2 84 1.3 S 15 22 8 12 1009.5 1009.5 13.0
 
Date/Time
EDT
Temp
°C
App
Temp
°C
Dew
Point
°C
Rel
Hum
%
Delta-T
°C
Wind Press
QNH
hPa
Press
MSL
hPa
Rain since
9am
mm
Dir  Spd
km/h
Gust
km/h
Spd
kts
Gust
kts
24/11:30pm 11.6 7.9 9.5 87 1.1 SSW 19 26 10 14 1009.2 1009.2 13.0
24/11:00pm 11.1 10.9 10.3 95 0.4 SSW 2 13 1 7 1009.2 1009.2 13.0
24/10:30pm 11.1 11.3 10.6 97 0.3 CALM 0 0 0 0 1009.0 1009.0 13.0
24/10:00pm 11.1 10.5 10.3 95 0.4 SSW 4 7 2 4 1008.6 1008.6 13.0
24/09:30pm 11.2 8.0 9.8 91 0.7 WSW 17 26 9 14 1008.6 1008.6 12.6
24/09:00pm 12.4 8.9 8.9 79 1.8 SW 17 28 9 15 1008.1 1008.1 12.2
24/08:30pm 13.3 9.3 8.4 72 2.4 SW 19 32 10 17 1007.5 1007.5 12.2
24/08:00pm 13.5 10.0 8.8 73 2.4 SW 17 26 9 14 1006.9 1006.9 12.2
24/07:30pm 13.7 11.2 9.7 77 2.1 SSW 13 22 7 12 1006.1 1006.1 12.2
24/07:00pm 13.9 10.1 9.9 77 2.1 SSW 20 35 11 19 1005.6 1005.6 12.2
24/06:30pm 14.2 11.7 11.2 82 1.6 SSW 15 20 8 11 1004.9 1004.9 12.2
24/06:00pm 14.9 12.0 11.1 78 2.0 SSW 17 28 9 15 1004.1 1004.1 12.2
24/05:30pm 15.5 12.4 12.1 80 1.9 SSW 20 33 11 18 1003.4 1003.4 12.2
24/05:00pm 15.8 12.5 12.7 82 1.7 SSW 22 35 12 19 1003.0 1003.0 12.2
24/04:30pm 16.6 14.7 14.2 86 1.4 SSW 17 26 9 14 1002.6 1002.6 12.2
24/04:00pm 16.9 14.2 14.7 87 1.3 SSW 22 35 12 19 1002.0 1002.0 12.2
24/03:53pm 17.3 16.2 16.3 94 0.6 SSW 17 30 9 16 1002.0 1002.0 12.2
24/03:30pm 17.2 17.5 17.0 99 0.1 S 11 15 6 8 1002.0 1002.0 12.0
24/03:01pm 17.2 17.1 17.0 99 0.1 SE 13 20 7 11 1001.4 1001.4 11.8
24/03:00pm 17.4 17.4 17.2 99 0.1 SE 13 20 7 11 1001.4 1001.4 11.8
24/02:30pm 17.8 18.7 17.6 99 0.1 SSE 9 15 5 8 1001.9 1001.9 11.8
24/02:00pm 17.8 19.3 17.6 99 0.1 ESE 6 9 3 5 1002.0 1002.0 11.6
24/01:33pm 18.0 20.7 17.8 99 0.1 CALM 0 0 0 0 1002.1 1002.1 10.4
24/01:30pm 18.1 20.9 17.9 99 0.1 CALM 0 0 0 0 1002.1 1002.1 10.2
24/01:15pm 18.3 21.1 18.0 98 0.2 CALM 0 0 0 0 1001.7 1001.7 9.6
24/01:09pm 18.4 21.3 18.2 99 0.1 CALM 0 0 0 0 1001.6 1001.6 8.8
24/01:00pm 18.6 21.6 18.4 99 0.1 CALM 0 0 0 0 1001.8 1001.8 8.6
24/12:30pm 18.9 20.3 18.7 99 0.1 SW 9 15 5 8 1001.9 1001.9 2.4
24/12:00pm 18.1 20.8 17.8 98 0.2 CALM 0 0 0 0 1001.5 1001.5 0.8
24/11:30am 18.4 21.2 17.9 97 0.3 CALM 0 0 0 0 1001.5 1001.5 0.0
24/11:19am 18.9 22.0 18.6 98 0.2 CALM 0 0 0 0 1001.6 1001.6 0.0
24/11:00am 19.0 21.7 18.7 98 0.2 SSW 2 7 1 4 1001.5 1001.5 0.0
24/10:30am 18.6 21.6 18.4 99 0.1 CALM 0 0 0 0 1001.6 1001.6 0.0
24/10:00am 18.1 20.9 17.9 99 0.1 CALM 0 0 0 0 1001.3 1001.3 0.0
24/09:30am 17.6 20.2 17.4 99 0.1 CALM 0 6 0 3 1001.6 1001.6 0.0
24/09:00am 17.9 19.8 17.7 99 0.1 SSW 4 9 2 5 1001.8 1001.8 59.8
24/08:30am 18.2 21.0 18.0 99 0.1 CALM 0 0 0 0 1001.7 1001.7 59.8
24/08:00am 17.9 20.6 17.7 99 0.1 CALM 0 0 0 0 1001.9 1001.9 59.8

Other formats

Comma delimited format used in spreadsheet applications
http://www.bom.gov.au/fwo/IDN60801/IDN60801.95929.axf

JavaScript Object Notation format (JSON) in row-major order
http://www.bom.gov.au/fwo/IDN60801/IDN60801.95929.json

Data quality

Most of these data are generated automatically and are frequently updated. Quality checks on data are not normally performed. It is possible for incorrect values to appear. Refer to information at About Latest Weather Observations and please check the disclaimer before using these data.